Shoreham-by-Sea, United Kingdom
Current Conditions -  °F | °C
As of 1:20 PM on Wednesday 22 Oct 2014 (Local Time) from EGKA Reporting Station
Few Clouds Few Clouds  
Wind Chill: 55°   Ceiling: Unl
Heat Index: 55°   Visibility: 6mi
Dew Point: 43°   Wind: 12mph
Humidity: 63%   Direction: 290°WNW
Pressure: 30.3"   Gusts: NA
Location:  50.83°N, 0.27°W
Report Text: EGKA 221220Z 29010KT 9999 FEW030 13/06 Q1026
Loading
Personal Weather Stations






























Interactive Weather Map
Tropical Storm Tracking
New forecast layout! Learn more

10-Day Weather Forecast

Advertisements
Track Severe Weather on mobile